createdAt,value
2019-05-22T00:00:24.870Z,97.38
2019-05-22T00:01:24.822Z,95.97
2019-05-22T00:02:24.865Z,96.47
2019-05-22T00:03:24.846Z,97.08
2019-05-22T00:04:24.847Z,96.98
2019-05-22T00:05:24.840Z,96.67
2019-05-22T00:06:24.780Z,96.37
2019-05-22T00:07:24.744Z,96.27
2019-05-22T00:08:24.771Z,96.27
2019-05-22T00:09:24.761Z,96.57
2019-05-22T00:10:24.774Z,96.88
2019-05-22T00:11:24.709Z,96.47
2019-05-22T00:12:24.760Z,97.18
2019-05-22T00:13:24.671Z,96.67
2019-05-22T00:14:24.700Z,97.49
2019-05-22T00:15:24.723Z,97.23
2019-05-22T00:16:24.720Z,97.28
2019-05-22T00:17:24.626Z,97.08
2019-05-22T00:18:24.637Z,97.49
2019-05-22T00:19:24.746Z,97.63
2019-05-22T00:20:24.601Z,97.69
2019-05-22T00:21:24.628Z,97.63
2019-05-22T00:22:24.637Z,97.28
2019-05-22T00:23:24.571Z,96.31
2019-05-22T00:24:24.570Z,95.61
2019-05-22T00:25:24.605Z,96.22
2019-05-22T00:26:24.622Z,95.91
2019-05-22T00:27:24.514Z,96.22
2019-05-22T00:28:24.533Z,96.01
2019-05-22T00:29:24.537Z,96.31
2019-05-22T00:30:24.575Z,96.22
2019-05-22T00:31:24.527Z,96.42
2019-05-22T00:32:24.482Z,96.22
2019-05-22T00:33:24.475Z,95.81
2019-05-22T00:34:24.460Z,95.81
2019-05-22T00:35:24.616Z,95.81
2019-05-22T00:36:24.436Z,96.01
2019-05-22T00:37:24.464Z,96.01
2019-05-22T00:38:24.432Z,95.40
2019-05-22T00:39:24.416Z,95.04
2019-05-22T00:40:24.375Z,95.00
2019-05-22T00:41:24.380Z,96.11
2019-05-22T00:42:24.403Z,95.91
2019-05-22T00:43:24.352Z,96.06
2019-05-22T00:44:24.340Z,96.06
2019-05-22T00:45:24.350Z,96.26
2019-05-22T00:46:24.318Z,96.46
2019-05-22T00:47:24.327Z,96.15
2019-05-22T00:48:24.365Z,96.20
2019-05-22T00:49:24.328Z,96.91
2019-05-22T00:50:24.926Z,96.20
2019-05-22T00:51:24.290Z,95.95
2019-05-22T00:52:24.279Z,96.06
2019-05-22T00:53:24.263Z,95.39
2019-05-22T00:54:24.245Z,96.10
2019-05-22T00:55:24.228Z,96.26
2019-05-22T00:56:24.213Z,95.86
2019-05-22T00:57:24.207Z,96.15
2019-05-22T00:58:24.218Z,96.36
2019-05-22T00:59:24.210Z,96.26
2019-05-22T01:00:24.166Z,96.36
2019-05-22T01:01:24.160Z,96.26
2019-05-22T01:02:24.166Z,96.15
2019-05-22T01:03:24.184Z,94.98
2019-05-22T01:04:24.237Z,95.29
2019-05-22T01:05:24.181Z,95.79
2019-05-22T01:06:24.105Z,96.20
2019-05-22T01:07:24.091Z,96.20
2019-05-22T01:08:24.098Z,95.79
2019-05-22T01:09:24.135Z,95.90
2019-05-22T01:10:24.073Z,96.30
2019-05-22T01:11:24.096Z,95.90
2019-05-22T01:12:24.092Z,96.20
2019-05-22T01:13:24.039Z,95.79
2019-05-22T01:14:24.099Z,96.30
2019-05-22T01:15:24.041Z,95.29
2019-05-22T01:16:24.025Z,96.25
2019-05-22T01:17:24.012Z,96.04
2019-05-22T01:18:24.048Z,96.15
2019-05-22T01:19:24.024Z,96.35
2019-05-22T01:20:23.986Z,96.55
2019-05-22T01:21:24.032Z,96.45
2019-05-22T01:22:23.959Z,96.55
2019-05-22T01:23:23.904Z,96.30
2019-05-22T01:24:23.943Z,96.35
2019-05-22T01:25:23.951Z,96.55
2019-05-22T01:26:23.909Z,96.04
2019-05-22T01:27:23.894Z,95.84
2019-05-22T01:28:23.942Z,96.15
2019-05-22T01:29:24.436Z,96.39
2019-05-22T01:30:23.934Z,96.25
2019-05-22T01:31:23.853Z,96.25
2019-05-22T01:32:23.854Z,96.25
2019-05-22T01:33:23.871Z,96.04
2019-05-22T01:34:23.825Z,96.09
2019-05-22T01:35:23.854Z,96.70
2019-05-22T01:36:23.833Z,96.19
2019-05-22T01:37:23.803Z,96.60
2019-05-22T01:38:23.798Z,96.30
2019-05-22T01:39:23.756Z,96.60
2019-05-22T01:40:23.864Z,96.19
2019-05-22T01:41:23.752Z,96.50
2019-05-22T01:42:23.773Z,96.35
2019-05-22T01:43:23.728Z,96.30
2019-05-22T01:44:23.711Z,96.30
2019-05-22T01:45:23.698Z,96.30
2019-05-22T01:46:23.783Z,95.58
2019-05-22T01:47:23.659Z,96.30
2019-05-22T01:48:23.665Z,95.79
2019-05-22T01:49:24.438Z,96.09
2019-05-22T01:50:23.690Z,96.19
2019-05-22T01:51:23.655Z,96.70
2019-05-22T01:52:23.689Z,96.50
2019-05-22T01:53:23.600Z,96.09
2019-05-22T01:54:24.558Z,96.60
2019-05-22T01:55:23.578Z,96.50
2019-05-22T01:56:23.682Z,96.30
2019-05-22T01:57:23.585Z,95.48
2019-05-22T01:58:23.587Z,95.79
2019-05-22T01:59:27.122Z,95.79
2019-05-22T02:00:24.441Z,96.19
2019-05-22T02:01:23.582Z,95.89
2019-05-22T02:02:23.515Z,96.30
2019-05-22T02:03:24.442Z,95.28
2019-05-22T02:04:23.532Z,94.46
2019-05-22T02:05:23.492Z,94.67
2019-05-22T02:06:23.463Z,94.71
2019-05-22T02:07:23.456Z,95.38
2019-05-22T02:08:23.561Z,95.22
2019-05-22T02:09:23.563Z,95.42
2019-05-22T02:10:23.506Z,95.42
2019-05-22T02:11:23.443Z,95.53
2019-05-22T02:12:23.419Z,95.12
2019-05-22T02:13:23.387Z,95.22
2019-05-22T02:14:23.388Z,95.22
2019-05-22T02:15:23.641Z,95.32
2019-05-22T02:16:23.374Z,95.22
2019-05-22T02:17:23.339Z,95.63
2019-05-22T02:18:23.325Z,96.03
2019-05-22T02:19:23.338Z,95.53
2019-05-22T02:20:23.339Z,96.44
2019-05-22T02:21:23.314Z,96.23
2019-05-22T02:22:23.288Z,95.53
2019-05-22T02:23:23.280Z,96.54
2019-05-22T02:24:23.285Z,95.32
2019-05-22T02:25:23.273Z,95.94
2019-05-22T02:26:23.261Z,96.28
2019-05-22T02:27:23.237Z,96.14
2019-05-22T02:28:23.224Z,96.48
2019-05-22T02:29:23.209Z,96.59
2019-05-22T02:30:23.261Z,96.38
2019-05-22T02:31:23.224Z,96.89
2019-05-22T02:32:23.206Z,96.89
2019-05-22T02:33:23.181Z,96.69
2019-05-22T02:34:23.145Z,97.30
2019-05-22T02:35:23.135Z,97.30
2019-05-22T02:36:23.177Z,97.40
2019-05-22T02:37:32.582Z,97.91
2019-05-22T02:38:33.094Z,98.11
2019-05-22T02:39:23.086Z,97.20
2019-05-22T02:40:32.637Z,97.30
2019-05-22T02:41:31.663Z,97.91
2019-05-22T02:42:32.692Z,97.91
2019-05-22T02:43:32.234Z,97.30
2019-05-22T02:44:32.246Z,98.01
2019-05-22T02:45:23.060Z,97.80
2019-05-22T02:46:23.094Z,98.21
2019-05-22T02:47:23.048Z,97.60
2019-05-22T02:48:23.015Z,98.01
2019-05-22T02:49:23.003Z,98.62
2019-05-22T02:50:23.031Z,98.47
2019-05-22T02:51:22.991Z,98.52
2019-05-22T02:52:22.969Z,97.86
2019-05-22T02:53:22.998Z,97.71
2019-05-22T02:54:22.943Z,96.99
2019-05-22T02:55:22.929Z,96.99
2019-05-22T02:56:22.954Z,96.79
2019-05-22T02:57:22.922Z,96.89
2019-05-22T02:58:23.004Z,97.50
2019-05-22T02:59:22.882Z,97.30
2019-05-22T03:00:22.915Z,96.89
2019-05-22T03:01:22.869Z,97.20
2019-05-22T03:02:22.867Z,96.99
2019-05-22T03:03:22.859Z,96.89
2019-05-22T03:04:22.885Z,97.80
2019-05-22T03:05:22.871Z,96.83
2019-05-22T03:06:22.838Z,96.94
2019-05-22T03:07:22.804Z,97.14
2019-05-22T03:08:22.787Z,97.04
2019-05-22T03:09:22.799Z,97.20
2019-05-22T03:10:22.845Z,97.50
2019-05-22T03:11:22.762Z,96.73
2019-05-22T03:12:22.776Z,96.33
2019-05-22T03:13:22.809Z,96.69
2019-05-22T03:14:22.772Z,96.89
2019-05-22T03:15:22.814Z,97.09
2019-05-22T03:16:22.702Z,97.34
2019-05-22T03:17:22.710Z,96.48
2019-05-22T03:18:22.734Z,96.28
2019-05-22T03:19:22.676Z,96.53
2019-05-22T03:20:22.686Z,96.73
2019-05-22T03:21:22.702Z,96.63
2019-05-22T03:22:22.650Z,96.83
2019-05-22T03:23:22.628Z,97.30
2019-05-22T03:24:22.611Z,97.60
2019-05-22T03:25:22.682Z,97.60
2019-05-22T03:26:22.658Z,97.30
2019-05-22T03:27:22.616Z,97.30
2019-05-22T03:28:22.695Z,97.55
2019-05-22T03:29:22.594Z,97.50
2019-05-22T03:30:22.635Z,97.44
2019-05-22T03:31:22.552Z,97.04
2019-05-22T03:32:22.561Z,97.50
2019-05-22T03:33:22.538Z,97.75
2019-05-22T03:34:22.506Z,97.71
2019-05-22T03:35:22.561Z,97.20
2019-05-22T03:36:22.528Z,97.91
2019-05-22T03:37:22.496Z,97.50
2019-05-22T03:38:22.473Z,97.91
2019-05-22T03:39:22.466Z,97.60
2019-05-22T03:40:22.464Z,97.50
2019-05-22T03:41:22.428Z,97.71
2019-05-22T03:42:22.481Z,98.01
2019-05-22T03:43:22.437Z,97.80
2019-05-22T03:44:22.411Z,97.80
2019-05-22T03:45:22.466Z,97.91
2019-05-22T03:46:22.499Z,97.80
2019-05-22T03:47:22.385Z,98.21
2019-05-22T03:48:22.402Z,98.01
2019-05-22T03:49:31.054Z,98.11
2019-05-22T03:50:23.329Z,97.55
2019-05-22T03:51:22.470Z,97.34
2019-05-22T03:52:22.320Z,97.14
2019-05-22T03:53:22.348Z,96.99
2019-05-22T03:54:22.330Z,98.26
2019-05-22T03:55:22.295Z,97.44
2019-05-22T03:56:22.318Z,97.55
2019-05-22T03:57:22.299Z,97.96
2019-05-22T03:58:22.298Z,97.65
2019-05-22T03:59:22.299Z,97.85
2019-05-22T04:00:22.259Z,97.55
2019-05-22T04:01:22.243Z,97.55
2019-05-22T04:02:22.241Z,97.89
2019-05-22T04:03:22.230Z,97.89
2019-05-22T04:04:22.377Z,98.30
2019-05-22T04:05:22.248Z,97.96
2019-05-22T04:06:22.704Z,98.26
2019-05-22T04:07:22.194Z,97.96
2019-05-22T04:08:22.218Z,97.96
2019-05-22T04:09:22.458Z,97.75
2019-05-22T04:10:22.137Z,98.00
2019-05-22T04:11:22.135Z,98.00
2019-05-22T04:12:22.129Z,98.81
2019-05-22T04:13:22.148Z,98.81
2019-05-22T04:14:22.120Z,98.20
2019-05-22T04:15:22.790Z,98.61
2019-05-22T04:16:22.078Z,98.20
2019-05-22T04:17:22.158Z,98.50
2019-05-22T04:18:22.991Z,99.02
2019-05-22T04:19:22.101Z,98.61
2019-05-22T04:20:22.063Z,98.91
2019-05-22T04:21:22.059Z,99.22
2019-05-22T04:22:22.061Z,97.69
2019-05-22T04:23:22.015Z,97.49
2019-05-22T04:24:22.014Z,97.74
2019-05-22T04:25:21.988Z,97.80
2019-05-22T04:26:22.132Z,98.91
2019-05-22T04:27:22.172Z,97.94
2019-05-22T04:28:22.113Z,97.53
2019-05-22T04:29:22.060Z,97.23
2019-05-22T04:30:21.926Z,98.05
2019-05-22T04:31:21.971Z,97.74
2019-05-22T04:32:22.036Z,97.74
2019-05-22T04:33:22.048Z,97.74
2019-05-22T04:34:21.887Z,98.35
2019-05-22T04:35:21.992Z,97.94
2019-05-22T04:36:21.910Z,97.53
2019-05-22T04:37:21.966Z,97.64
2019-05-22T04:38:21.988Z,97.74
2019-05-22T04:39:21.862Z,97.23
2019-05-22T04:40:21.873Z,97.13
2019-05-22T04:41:21.837Z,97.23
2019-05-22T04:42:21.810Z,97.38
2019-05-22T04:43:21.778Z,96.77
2019-05-22T04:44:21.793Z,97.53
2019-05-22T04:45:21.977Z,96.56
2019-05-22T04:46:22.303Z,97.07
2019-05-22T04:47:21.780Z,96.56
2019-05-22T04:48:21.755Z,96.87
2019-05-22T04:49:21.735Z,96.87
2019-05-22T04:50:22.212Z,96.87
2019-05-22T04:51:21.703Z,96.87
2019-05-22T04:52:21.770Z,96.77
2019-05-22T04:53:21.679Z,96.67
2019-05-22T04:54:21.669Z,96.36
2019-05-22T04:55:21.709Z,96.67
2019-05-22T04:56:21.619Z,96.56
2019-05-22T04:57:21.655Z,96.87
2019-05-22T04:58:21.669Z,96.56
2019-05-22T04:59:21.632Z,95.54
2019-05-22T05:00:21.656Z,96.56
2019-05-22T05:01:21.668Z,96.46
2019-05-22T05:02:21.596Z,96.36
2019-05-22T05:03:21.642Z,95.65
2019-05-22T05:04:21.602Z,95.54
2019-05-22T05:05:21.613Z,95.40
2019-05-22T05:06:22.215Z,95.45
2019-05-22T05:07:22.219Z,95.45
2019-05-22T05:08:21.531Z,95.20
2019-05-22T05:09:21.521Z,95.20
2019-05-22T05:10:21.516Z,94.89
2019-05-22T05:11:21.492Z,95.30
2019-05-22T05:12:22.726Z,95.09
2019-05-22T05:13:21.540Z,94.79
2019-05-22T05:14:21.484Z,95.09
2019-05-22T05:15:21.453Z,95.40
2019-05-22T05:16:22.729Z,95.20
2019-05-22T05:18:42.607Z,95.09
2019-05-22T05:19:42.331Z,95.61
2019-05-22T05:20:42.324Z,95.00
2019-05-22T05:21:43.013Z,94.08
2019-05-22T05:22:44.634Z,94.08
2019-05-22T05:23:42.374Z,94.28
2019-05-22T05:24:43.137Z,94.79
2019-05-22T05:25:43.254Z,93.26
2019-05-22T05:26:42.276Z,93.31
2019-05-22T05:27:42.169Z,94.12
2019-05-22T05:28:43.254Z,94.02
2019-05-22T05:29:45.328Z,94.59
2019-05-22T05:30:42.261Z,94.23
2019-05-22T05:31:42.168Z,94.12
2019-05-22T05:32:42.213Z,94.23
2019-05-22T05:33:42.142Z,94.08
2019-05-22T05:34:45.276Z,94.53
2019-05-22T05:35:42.109Z,94.43
2019-05-22T05:36:42.249Z,94.12
2019-05-22T05:37:43.753Z,94.59
2019-05-22T05:38:42.069Z,93.06
2019-05-22T05:39:42.081Z,93.57
2019-05-22T05:40:42.033Z,93.71
2019-05-22T05:41:42.046Z,93.92
2019-05-22T05:42:42.037Z,93.82
2019-05-22T05:43:42.009Z,94.32
2019-05-22T05:44:42.025Z,95.14
2019-05-22T05:45:42.041Z,94.53
2019-05-22T05:46:41.968Z,95.14
2019-05-22T05:47:41.974Z,94.93
2019-05-22T05:48:41.934Z,95.65
2019-05-22T05:49:41.927Z,95.24
2019-05-22T05:50:41.947Z,95.24
2019-05-22T05:51:41.913Z,95.24
2019-05-22T05:52:41.883Z,95.54
2019-05-22T05:53:41.870Z,95.65
2019-05-22T05:54:41.948Z,96.06
2019-05-22T05:55:42.451Z,95.45
2019-05-22T05:56:41.917Z,95.75
2019-05-22T05:57:41.923Z,95.14
2019-05-22T05:58:41.847Z,95.45
2019-05-22T05:59:41.900Z,95.45
2019-05-22T06:00:44.585Z,95.14
2019-05-22T06:01:41.864Z,95.34
2019-05-22T06:02:55.700Z,95.14
2019-05-22T06:03:42.852Z,95.14
2019-05-22T06:04:41.842Z,95.24
2019-05-22T06:05:41.898Z,95.08
2019-05-22T06:06:41.835Z,95.24
2019-05-22T06:07:42.023Z,95.29
2019-05-22T06:08:41.785Z,95.69
2019-05-22T06:09:41.783Z,95.54
2019-05-22T06:10:41.770Z,95.45
2019-05-22T06:11:41.726Z,95.69
2019-05-22T06:12:41.727Z,94.88
2019-05-22T06:13:41.697Z,96.00
2019-05-22T06:14:41.670Z,95.18
2019-05-22T06:15:46.977Z,95.18
2019-05-22T06:16:42.637Z,94.68
2019-05-22T06:17:41.745Z,94.78
2019-05-22T06:18:41.616Z,95.59
2019-05-22T06:19:41.635Z,95.18
2019-05-22T06:20:41.600Z,94.47
2019-05-22T06:21:41.584Z,94.72
2019-05-22T06:22:42.366Z,94.01
2019-05-22T06:23:41.762Z,94.37
2019-05-22T06:24:41.595Z,93.80
2019-05-22T06:25:41.531Z,94.01
2019-05-22T06:26:41.550Z,94.01
2019-05-22T06:27:41.552Z,94.21
2019-05-22T06:28:41.608Z,94.42
2019-05-22T06:29:41.541Z,94.42
2019-05-22T06:30:41.497Z,94.11
2019-05-22T06:31:41.505Z,94.42
2019-05-22T06:32:41.690Z,94.42
2019-05-22T06:33:41.509Z,93.60
2019-05-22T06:34:41.505Z,93.90
2019-05-22T06:35:41.465Z,94.01
2019-05-22T06:36:41.632Z,94.42
2019-05-22T06:37:41.469Z,95.23
2019-05-22T06:38:41.531Z,95.64
2019-05-22T06:39:41.480Z,94.72
2019-05-22T06:40:41.423Z,94.21
2019-05-22T06:41:41.415Z,94.82
2019-05-22T06:42:41.445Z,94.11
2019-05-22T06:43:41.412Z,94.72
2019-05-22T06:44:41.457Z,94.31
2019-05-22T06:45:41.384Z,94.01
2019-05-22T06:46:41.426Z,94.52
2019-05-22T06:47:41.320Z,93.70
2019-05-22T06:48:41.339Z,94.11
2019-05-22T06:49:41.304Z,94.11
2019-05-22T06:50:41.315Z,94.78
2019-05-22T06:51:41.292Z,93.25
2019-05-22T06:52:41.262Z,93.60
2019-05-22T06:53:41.261Z,93.05
2019-05-22T06:54:41.260Z,92.99
2019-05-22T06:55:41.280Z,92.64
2019-05-22T06:56:41.264Z,92.84
2019-05-22T06:57:41.228Z,92.79
2019-05-22T06:58:41.181Z,92.79
2019-05-22T06:59:41.215Z,93.60
2019-05-22T07:00:41.180Z,93.45
2019-05-22T07:01:41.272Z,93.45
2019-05-22T07:02:41.178Z,93.96
2019-05-22T07:03:41.167Z,93.66
2019-05-22T07:04:41.132Z,92.80
2019-05-22T07:05:41.135Z,91.99
2019-05-22T07:06:41.144Z,91.68
2019-05-22T07:07:41.113Z,92.03
2019-05-22T07:08:41.775Z,91.31
2019-05-22T07:09:41.099Z,91.22
2019-05-22T07:10:41.098Z,91.31
2019-05-22T07:11:41.053Z,92.03
2019-05-22T07:12:41.110Z,91.31
2019-05-22T07:13:41.064Z,91.93
2019-05-22T07:14:41.046Z,92.07
2019-05-22T07:15:41.074Z,92.68
2019-05-22T07:16:41.037Z,92.33
2019-05-22T07:17:41.026Z,92.64
2019-05-22T07:18:41.024Z,91.72
2019-05-22T07:19:41.006Z,92.54
2019-05-22T07:20:40.998Z,91.97
2019-05-22T07:21:40.936Z,92.13
2019-05-22T07:22:41.007Z,91.72
2019-05-22T07:23:40.929Z,92.44
2019-05-22T07:24:40.921Z,92.23
2019-05-22T07:25:40.974Z,92.09
2019-05-22T07:26:40.901Z,91.72
2019-05-22T07:27:40.908Z,91.42
2019-05-22T07:28:40.921Z,90.46
2019-05-22T07:29:41.958Z,90.50
2019-05-22T07:30:40.894Z,90.77
2019-05-22T07:31:40.860Z,90.20
2019-05-22T07:32:40.871Z,90.60
2019-05-22T07:33:40.841Z,89.64
2019-05-22T07:34:40.838Z,90.36
2019-05-22T07:36:04.818Z,90.05
2019-05-22T07:36:41.837Z,89.95
2019-05-22T07:37:40.774Z,89.24
2019-05-22T07:38:40.756Z,89.79
2019-05-22T07:39:40.757Z,89.89
2019-05-22T07:40:40.765Z,89.89
2019-05-22T07:41:40.774Z,90.16
2019-05-22T07:42:40.785Z,90.30
2019-05-22T07:43:41.918Z,90.16
2019-05-22T07:44:40.719Z,89.75
2019-05-22T07:45:40.868Z,89.54
2019-05-22T07:46:40.683Z,89.85
2019-05-22T07:47:40.752Z,89.07
2019-05-22T07:48:40.673Z,89.48
2019-05-22T07:49:40.636Z,89.69
2019-05-22T07:50:40.673Z,89.18
2019-05-22T07:51:52.003Z,89.89
2019-05-22T07:52:41.654Z,90.20
2019-05-22T07:53:40.638Z,90.20
2019-05-22T07:54:40.598Z,90.60
2019-05-22T07:55:40.656Z,90.81
2019-05-22T07:56:40.562Z,89.99
2019-05-22T07:57:40.675Z,90.20
2019-05-22T07:58:40.572Z,90.30
2019-05-22T07:59:40.566Z,89.79
2019-05-22T08:00:40.601Z,89.99
2019-05-22T08:01:40.625Z,90.20
2019-05-22T08:02:40.524Z,90.09
2019-05-22T08:03:41.287Z,89.95
2019-05-22T08:04:40.583Z,90.05
2019-05-22T08:05:41.359Z,89.99
2019-05-22T08:06:41.299Z,89.85
2019-05-22T08:07:40.527Z,89.75
2019-05-22T08:08:40.567Z,89.03
2019-05-22T08:09:40.450Z,88.83
2019-05-22T08:10:40.451Z,89.44
2019-05-22T08:11:40.408Z,89.54
2019-05-22T08:12:40.464Z,88.53
2019-05-22T08:13:40.478Z,89.48
2019-05-22T08:14:40.446Z,89.48
2019-05-22T08:15:40.373Z,89.59
2019-05-22T08:16:40.349Z,88.77
2019-05-22T08:17:40.340Z,89.28
2019-05-22T08:18:40.371Z,89.99
2019-05-22T08:19:40.593Z,89.89
2019-05-22T08:20:40.368Z,90.20
2019-05-22T08:21:40.342Z,89.64
2019-05-22T08:22:40.354Z,89.59
2019-05-22T08:23:40.363Z,89.48
2019-05-22T08:24:40.284Z,88.98
2019-05-22T08:25:40.802Z,89.34
2019-05-22T08:26:53.372Z,88.93
2019-05-22T08:27:41.266Z,89.24
2019-05-22T08:28:40.224Z,89.95
2019-05-22T08:29:40.238Z,88.93
2019-05-22T08:30:40.239Z,89.14
2019-05-22T08:31:40.368Z,89.03
2019-05-22T08:32:40.220Z,89.50
2019-05-22T08:33:40.208Z,89.44
2019-05-22T08:34:40.336Z,89.50
2019-05-22T08:35:40.847Z,88.83
2019-05-22T08:36:40.187Z,88.53
2019-05-22T08:37:40.805Z,88.53
2019-05-22T08:38:40.256Z,89.44
2019-05-22T08:39:40.139Z,89.44
2019-05-22T08:40:40.139Z,89.34
2019-05-22T08:41:40.113Z,88.63
2019-05-22T08:42:40.143Z,89.24
2019-05-22T08:44:03.290Z,89.30
2019-05-22T08:44:41.057Z,89.30
2019-05-22T08:45:40.037Z,89.50
2019-05-22T08:46:50.398Z,89.54
2019-05-22T08:47:40.011Z,89.44
2019-05-22T08:48:46.956Z,89.03
2019-05-22T08:49:40.991Z,89.95
2019-05-22T08:50:39.991Z,89.85
2019-05-22T08:51:39.973Z,89.85
2019-05-22T08:52:40.005Z,89.54
2019-05-22T08:53:47.253Z,89.81
2019-05-22T08:54:40.968Z,89.70
2019-05-22T08:55:39.999Z,89.81
2019-05-22T08:56:39.953Z,89.09
2019-05-22T08:57:39.956Z,89.50
2019-05-22T08:58:39.915Z,89.20
2019-05-22T08:59:39.897Z,89.76
2019-05-22T09:00:39.895Z,89.56
2019-05-22T09:01:39.889Z,88.75
2019-05-22T09:02:39.931Z,88.44
2019-05-22T09:03:39.925Z,88.30
2019-05-22T09:04:39.851Z,88.10
2019-05-22T09:05:39.855Z,86.77
2019-05-22T09:06:39.909Z,87.43
2019-05-22T09:07:39.794Z,87.53
2019-05-22T09:08:39.830Z,87.43
2019-05-22T09:09:39.805Z,88.13
2019-05-22T09:10:39.786Z,87.73
2019-05-22T09:11:39.787Z,87.93
2019-05-22T09:12:39.763Z,87.53
2019-05-22T09:13:39.738Z,86.76
2019-05-22T09:14:39.735Z,88.24
2019-05-22T09:15:39.710Z,87.84
2019-05-22T09:16:39.696Z,87.73
2019-05-22T09:17:39.693Z,87.63
2019-05-22T09:18:39.708Z,86.61
2019-05-22T09:19:39.699Z,86.71
2019-05-22T09:20:48.780Z,87.84
2019-05-22T09:21:40.796Z,87.53
2019-05-22T09:22:41.330Z,88.44
2019-05-22T09:23:39.652Z,87.23
2019-05-22T09:24:39.657Z,87.84
2019-05-22T09:25:39.603Z,88.24
2019-05-22T09:26:39.652Z,87.84
2019-05-22T09:27:39.585Z,87.53
2019-05-22T09:28:39.609Z,87.53
2019-05-22T09:29:39.565Z,87.93
2019-05-22T09:30:39.587Z,88.04
2019-05-22T09:31:39.701Z,87.87
2019-05-22T09:32:39.521Z,87.57
2019-05-22T09:33:39.575Z,87.63
2019-05-22T09:34:39.558Z,88.34
2019-05-22T09:35:39.490Z,88.24
2019-05-22T09:36:39.511Z,87.43
2019-05-22T09:37:39.477Z,88.04
2019-05-22T09:38:39.462Z,87.23
2019-05-22T09:39:39.450Z,87.53
2019-05-22T09:40:39.471Z,87.53
2019-05-22T09:41:39.444Z,87.93
2019-05-22T09:42:39.446Z,87.93
2019-05-22T09:43:39.443Z,87.63
2019-05-22T09:44:39.409Z,87.59
2019-05-22T09:45:39.392Z,88.04
2019-05-22T09:46:39.388Z,87.93
2019-05-22T09:47:39.374Z,87.32
2019-05-22T09:48:39.374Z,87.59
2019-05-22T09:49:39.345Z,87.38
2019-05-22T09:50:39.343Z,87.29
2019-05-22T09:51:39.375Z,87.79
2019-05-22T09:52:39.380Z,86.16
2019-05-22T09:53:39.329Z,86.68
2019-05-22T09:54:39.438Z,87.14
2019-05-22T09:55:39.288Z,86.47
2019-05-22T09:56:39.308Z,87.59
2019-05-22T09:57:39.279Z,87.49
2019-05-22T09:58:39.255Z,86.57
2019-05-22T09:59:39.257Z,87.38
2019-05-22T10:00:39.255Z,87.38
2019-05-22T10:01:39.229Z,86.57
2019-05-22T10:02:39.234Z,86.37
2019-05-22T10:03:39.190Z,85.80
2019-05-22T10:04:39.197Z,86.37
2019-05-22T10:05:39.232Z,87.02
2019-05-22T10:06:39.188Z,86.27
2019-05-22T10:07:56.990Z,86.07
2019-05-22T10:08:40.224Z,85.96
2019-05-22T10:09:39.135Z,86.31
2019-05-22T10:10:39.145Z,86.00
2019-05-22T10:11:39.148Z,85.96
2019-05-22T10:12:39.100Z,86.07
2019-05-22T10:13:39.418Z,86.57
2019-05-22T10:14:39.132Z,85.05
2019-05-22T10:15:39.070Z,84.95
2019-05-22T10:16:39.151Z,84.84
2019-05-22T10:17:39.063Z,84.91
2019-05-22T10:18:39.059Z,84.34
2019-05-22T10:19:39.024Z,84.95
2019-05-22T10:20:39.086Z,83.69
2019-05-22T10:21:39.003Z,84.03
2019-05-22T10:22:38.987Z,84.20
2019-05-22T10:23:38.989Z,84.30
2019-05-22T10:24:38.977Z,84.13
2019-05-22T10:25:38.956Z,84.13
2019-05-22T10:26:38.942Z,84.23
2019-05-22T10:27:38.941Z,84.74
2019-05-22T10:28:38.943Z,85.46
2019-05-22T10:29:38.923Z,84.99
2019-05-22T10:30:38.935Z,85.86
2019-05-22T10:31:38.897Z,85.76
2019-05-22T10:32:38.881Z,85.96
2019-05-22T10:33:38.882Z,86.57
2019-05-22T10:34:38.857Z,86.00
2019-05-22T10:35:38.852Z,86.37
2019-05-22T10:36:38.881Z,86.57
2019-05-22T10:37:38.848Z,86.16
2019-05-22T10:38:38.810Z,86.07
2019-05-22T10:39:38.820Z,85.66
2019-05-22T10:40:38.798Z,85.96
2019-05-22T10:41:38.778Z,84.95
2019-05-22T10:42:38.782Z,85.05
2019-05-22T10:43:38.756Z,84.78
2019-05-22T10:44:38.753Z,84.78
2019-05-22T10:45:38.748Z,85.15
2019-05-22T10:46:38.765Z,85.76
2019-05-22T10:47:38.744Z,84.74
2019-05-22T10:48:40.420Z,84.95
2019-05-22T10:49:38.685Z,84.64
2019-05-22T10:50:38.675Z,85.15
2019-05-22T10:51:38.680Z,84.74
2019-05-22T10:52:38.676Z,84.84
2019-05-22T10:53:38.650Z,84.54
2019-05-22T10:54:38.663Z,85.86
2019-05-22T10:55:38.659Z,86.57
2019-05-22T10:56:38.634Z,86.33
2019-05-22T10:57:41.010Z,86.53
2019-05-22T10:58:38.623Z,85.62
2019-05-22T10:59:38.595Z,86.02
2019-05-22T11:00:38.578Z,86.02
2019-05-22T11:01:38.604Z,85.62
2019-05-22T11:02:38.604Z,85.11
2019-05-22T11:03:38.545Z,84.80
2019-05-22T11:04:38.562Z,84.40
2019-05-22T11:05:38.529Z,84.44
2019-05-22T11:06:38.513Z,85.35
2019-05-22T11:07:38.505Z,84.95
2019-05-22T11:08:38.512Z,84.74
2019-05-22T11:09:38.502Z,84.95
2019-05-22T11:10:38.480Z,84.74
2019-05-22T11:11:38.460Z,84.95
2019-05-22T11:12:38.656Z,84.54
2019-05-22T11:13:38.505Z,84.95
2019-05-22T11:14:38.469Z,84.64
2019-05-22T11:15:38.419Z,85.41
2019-05-22T11:16:38.398Z,85.72
2019-05-22T11:17:38.395Z,83.42
2019-05-22T11:18:38.416Z,84.44
2019-05-22T11:19:38.387Z,83.93
2019-05-22T11:20:38.365Z,84.03
2019-05-22T11:21:38.361Z,83.89
2019-05-22T11:22:38.338Z,84.13
2019-05-22T11:23:51.145Z,83.99
2019-05-22T11:24:39.350Z,83.69
2019-05-22T11:25:38.320Z,83.59
2019-05-22T11:26:38.301Z,83.38
2019-05-22T11:27:38.308Z,83.28
2019-05-22T11:28:38.285Z,82.98
2019-05-22T11:29:38.308Z,83.38
2019-05-22T11:30:38.268Z,83.12
2019-05-22T11:31:38.262Z,83.89
2019-05-22T11:32:38.272Z,83.69
2019-05-22T11:33:38.368Z,83.69
2019-05-22T11:34:38.224Z,83.69
2019-05-22T11:35:38.238Z,84.09
2019-05-22T11:36:38.248Z,83.99
2019-05-22T11:37:38.207Z,84.91
2019-05-22T11:38:38.204Z,84.60
2019-05-22T11:39:40.323Z,85.41
2019-05-22T11:40:39.180Z,85.66
2019-05-22T11:41:38.157Z,86.13
2019-05-22T11:42:38.149Z,85.55
2019-05-22T11:43:38.189Z,85.96
2019-05-22T11:44:38.115Z,85.55
2019-05-22T11:45:38.152Z,86.98
2019-05-22T11:46:45.599Z,86.27
2019-05-22T11:47:38.052Z,86.61
2019-05-22T11:48:38.064Z,86.57
2019-05-22T11:49:38.053Z,87.79
2019-05-22T11:50:38.063Z,87.49
2019-05-22T11:51:38.048Z,87.59
2019-05-22T11:52:38.010Z,85.76
2019-05-22T11:53:38.082Z,85.46
2019-05-22T11:54:38.016Z,85.90
2019-05-22T11:55:45.298Z,86.10
2019-05-22T11:56:39.002Z,86.31
2019-05-22T11:57:37.979Z,86.51
2019-05-22T11:58:37.955Z,86.61
2019-05-22T11:59:37.976Z,86.61
2019-05-22T12:00:37.940Z,86.10
2019-05-22T12:01:38.033Z,86.61
2019-05-22T12:02:37.948Z,86.51
2019-05-22T12:03:37.905Z,87.26
2019-05-22T12:04:47.789Z,86.55
2019-05-22T12:05:38.891Z,86.61
2019-05-22T12:06:37.877Z,86.51
2019-05-22T12:07:37.905Z,86.65
2019-05-22T12:08:37.866Z,86.86
2019-05-22T12:09:37.864Z,86.04
2019-05-22T12:10:37.830Z,86.35
2019-05-22T12:11:37.878Z,86.65
2019-05-22T12:12:37.821Z,86.55
2019-05-22T12:13:37.792Z,87.16
2019-05-22T12:14:37.785Z,86.96
2019-05-22T12:15:37.764Z,86.65
2019-05-22T12:16:37.783Z,86.96
2019-05-22T12:17:38.918Z,87.47
2019-05-22T12:18:37.741Z,87.37
2019-05-22T12:19:37.732Z,87.47
2019-05-22T12:20:37.783Z,86.65
2019-05-22T12:21:37.705Z,86.65
2019-05-22T12:22:37.738Z,86.86
2019-05-22T12:23:37.724Z,87.47
2019-05-22T12:24:37.889Z,86.35
2019-05-22T12:25:37.724Z,86.04
2019-05-22T12:26:37.659Z,86.21
2019-05-22T12:27:37.744Z,86.15
2019-05-22T12:28:37.723Z,86.25
2019-05-22T12:29:37.714Z,85.84
2019-05-22T12:30:37.670Z,86.04
2019-05-22T12:31:37.628Z,86.86
2019-05-22T12:32:37.659Z,86.00
2019-05-22T12:33:37.594Z,85.74
2019-05-22T12:34:37.627Z,85.94
2019-05-22T12:35:37.671Z,85.94
2019-05-22T12:36:37.589Z,86.04
2019-05-22T12:37:37.569Z,86.82
2019-05-22T12:38:37.605Z,86.45
2019-05-22T12:39:37.533Z,85.94
2019-05-22T12:40:37.523Z,85.33
2019-05-22T12:41:37.567Z,86.25
2019-05-22T12:42:37.556Z,85.84
2019-05-22T12:43:37.510Z,86.35
2019-05-22T12:44:37.490Z,85.84
2019-05-22T12:45:37.452Z,85.74
2019-05-22T12:46:37.912Z,85.74
2019-05-22T12:47:37.533Z,86.15
2019-05-22T12:48:37.410Z,85.84
2019-05-22T12:49:37.526Z,85.74
2019-05-22T12:50:37.404Z,86.04
2019-05-22T12:51:37.404Z,86.25
2019-05-22T12:52:37.375Z,84.72
2019-05-22T12:53:37.425Z,85.03